TimeCDT,TemperatureF,Dew PointF,Humidity,Sea Level PressureIn,VisibilityMPH,Wind Direction,Wind SpeedMPH,Gust SpeedMPH,PrecipitationIn,Events,Conditions,WindDirDegrees,DateUTC
12:15 AM,54.1,34.9,48,30.06,10.0,SE,8.1,-,N/A,,Overcast,140,2013-03-30 05:15:00
12:35 AM,53.2,38.1,57,30.06,10.0,SE,10.4,-,N/A,Rain,Light Rain,140,2013-03-30 05:35:00
12:55 AM,50.5,41.4,71,30.06,7.0,SSE,13.8,-,0.02,Rain,Light Rain,150,2013-03-30 05:55:00
1:15 AM,50.0,41.7,73,30.07,10.0,SSE,10.4,-,0.03,Rain,Rain,150,2013-03-30 06:15:00
1:35 AM,48.4,43.0,82,30.07,7.0,SSE,11.5,-,0.08,Rain,Heavy Rain,160,2013-03-30 06:35:00
1:55 AM,47.5,44.4,89,30.05,7.0,SSE,13.8,-,0.16,Rain,Light Rain,160,2013-03-30 06:55:00
2:15 AM,48.2,44.6,87,30.02,10.0,SE,15.0,-,N/A,,Overcast,140,2013-03-30 07:15:00
2:35 AM,48.4,45.1,89,30.01,10.0,SE,9.2,20.7,N/A,,Mostly Cloudy,140,2013-03-30 07:35:00
2:55 AM,48.2,45.5,90,29.99,10.0,SE,8.1,-,N/A,,Mostly Cloudy,130,2013-03-30 07:55:00
3:15 AM,48.9,46.8,92,29.98,10.0,SSE,6.9,-,N/A,,Overcast,150,2013-03-30 08:15:00
3:35 AM,48.7,45.9,90,29.97,10.0,SSE,8.1,-,N/A,,Mostly Cloudy,160,2013-03-30 08:35:00
3:55 AM,49.1,46.6,91,29.95,10.0,SSE,8.1,-,N/A,,Overcast,150,2013-03-30 08:55:00
4:15 AM,49.1,46.4,90,29.95,10.0,SE,4.6,-,N/A,,Overcast,130,2013-03-30 09:15:00
4:35 AM,48.6,46.4,92,29.96,7.0,NNE,5.8,-,N/A,Rain,Light Rain,30,2013-03-30 09:35:00
4:55 AM,48.4,46.4,93,29.97,7.0,NNE,5.8,-,0.03,Rain,Rain,30,2013-03-30 09:55:00
5:15 AM,48.7,46.8,93,29.99,4.0,North,4.6,-,0.05,Rain,Heavy Rain,10,2013-03-30 10:15:00
5:35 AM,48.7,46.9,93,29.97,7.0,East,5.8,-,0.06,Rain,Rain,90,2013-03-30 10:35:00
5:55 AM,48.4,46.6,93,29.95,7.0,SE,11.5,-,0.06,,Overcast,130,2013-03-30 10:55:00
6:15 AM,48.4,46.4,93,29.95,10.0,SSE,8.1,-,N/A,,Overcast,150,2013-03-30 11:15:00
6:35 AM,48.4,46.6,93,29.95,10.0,SSE,6.9,-,N/A,,Scattered Clouds,160,2013-03-30 11:35:00
6:55 AM,47.5,45.9,94,29.95,5.0,SE,4.6,-,N/A,,Mostly Cloudy,140,2013-03-30 11:55:00
7:15 AM,47.5,46.2,95,29.95,3.0,SE,6.9,-,0.03,Rain,Heavy Rain,140,2013-03-30 12:15:00
7:35 AM,47.3,45.9,95,29.95,2.5,SSW,4.6,-,0.03,,Mostly Cloudy,200,2013-03-30 12:35:00
7:55 AM,47.5,46.4,96,29.95,3.0,South,4.6,-,0.03,,Mostly Cloudy,180,2013-03-30 12:55:00
8:15 AM,48.2,47.1,96,29.95,4.0,Calm,Calm,-,0.01,,Overcast,0,2013-03-30 13:15:00
8:35 AM,49.1,47.8,95,29.96,5.0,Calm,Calm,-,0.01,,Overcast,0,2013-03-30 13:35:00
8:55 AM,50.0,48.6,95,29.96,7.0,Calm,Calm,-,0.01,,Overcast,0,2013-03-30 13:55:00
9:15 AM,50.9,49.1,94,29.97,7.0,Calm,Calm,-,N/A,,Mostly Cloudy,0,2013-03-30 14:15:00
9:35 AM,52.3,49.8,91,29.97,7.0,West,4.6,-,N/A,,Overcast,260,2013-03-30 14:35:00
9:55 AM,51.8,49.5,92,29.96,7.0,Calm,Calm,-,N/A,,Overcast,0,2013-03-30 14:55:00
10:15 AM,54.0,51.6,92,29.96,10.0,WSW,3.5,-,N/A,,Overcast,250,2013-03-30 15:15:00
10:35 AM,55.2,51.8,88,29.96,10.0,West,4.6,-,N/A,,Overcast,270,2013-03-30 15:35:00
10:55 AM,55.6,51.8,87,29.96,10.0,West,4.6,-,N/A,,Overcast,270,2013-03-30 15:55:00
11:15 AM,58.1,53.2,84,29.95,10.0,WNW,9.2,-,N/A,,Overcast,290,2013-03-30 16:15:00
11:35 AM,60.1,53.8,80,29.95,10.0,WNW,10.4,-,N/A,,Mostly Cloudy,290,2013-03-30 16:35:00
11:55 AM,61.0,53.4,76,29.94,10.0,WNW,11.5,16.1,N/A,,Mostly Cloudy,290,2013-03-30 16:55:00
12:15 PM,61.3,51.6,70,29.94,10.0,NW,12.7,17.3,N/A,,Mostly Cloudy,320,2013-03-30 17:15:00
12:35 PM,63.1,52.2,67,29.94,10.0,NW,11.5,-,N/A,,Mostly Cloudy,320,2013-03-30 17:35:00
12:55 PM,64.4,51.1,62,29.94,10.0,NW,13.8,18.4,N/A,,Scattered Clouds,320,2013-03-30 17:55:00
1:15 PM,64.8,48.7,56,29.93,10.0,NNW,13.8,19.6,N/A,,Scattered Clouds,340,2013-03-30 18:15:00
1:35 PM,63.5,48.9,59,29.93,10.0,NNW,16.1,23.0,N/A,,Scattered Clouds,340,2013-03-30 18:35:00
1:55 PM,64.4,49.8,59,29.93,10.0,North,19.6,23.0,N/A,,Scattered Clouds,350,2013-03-30 18:55:00
2:15 PM,64.4,45.0,49,29.93,10.0,NNW,17.3,24.2,N/A,,Clear,340,2013-03-30 19:15:00
2:35 PM,65.5,44.2,46,29.93,10.0,NNW,18.4,24.2,N/A,,Clear,340,2013-03-30 19:35:00
2:55 PM,65.3,43.3,45,29.93,10.0,NNW,17.3,26.5,N/A,,Clear,340,2013-03-30 19:55:00
3:15 PM,64.8,41.9,43,29.93,10.0,NNW,16.1,-,N/A,,Clear,340,2013-03-30 20:15:00
3:35 PM,64.8,41.7,43,29.93,10.0,North,16.1,21.9,N/A,,Clear,350,2013-03-30 20:35:00
3:55 PM,64.8,40.3,41,29.92,10.0,NNW,15.0,18.4,N/A,,Clear,340,2013-03-30 20:55:00
4:15 PM,64.8,38.5,38,29.92,10.0,NNW,16.1,20.7,N/A,,Clear,340,2013-03-30 21:15:00
4:35 PM,64.8,38.3,38,29.92,10.0,North,13.8,17.3,N/A,,Clear,360,2013-03-30 21:35:00
4:55 PM,65.1,39.0,38,29.92,10.0,North,13.8,-,N/A,,Clear,360,2013-03-30 21:55:00
5:15 PM,65.7,37.4,35,29.92,10.0,North,13.8,18.4,N/A,,Clear,360,2013-03-30 22:15:00
5:35 PM,64.8,36.3,35,29.92,10.0,North,10.4,-,N/A,,Clear,360,2013-03-30 22:35:00
5:55 PM,62.8,39.7,43,29.92,10.0,North,9.2,-,N/A,,Clear,350,2013-03-30 22:55:00
6:15 PM,62.2,40.5,45,29.92,10.0,North,8.1,-,N/A,,Clear,350,2013-03-30 23:15:00
6:35 PM,61.7,38.7,43,29.92,10.0,NNW,8.1,-,N/A,,Clear,330,2013-03-30 23:35:00
6:55 PM,61.2,39.2,44,29.92,10.0,NNW,6.9,-,N/A,,Clear,330,2013-03-30 23:55:00
7:15 PM,59.2,39.7,49,29.92,10.0,NNW,8.1,-,N/A,,Clear,330,2013-03-31 00:15:00
7:35 PM,57.6,39.6,51,29.93,10.0,NNW,6.9,-,N/A,,Clear,330,2013-03-31 00:35:00
7:55 PM,55.2,40.1,57,29.93,10.0,NNW,6.9,-,N/A,,Clear,330,2013-03-31 00:55:00
8:15 PM,54.3,40.1,59,29.93,10.0,NNW,6.9,-,N/A,,Clear,330,2013-03-31 01:15:00
8:35 PM,54.0,40.6,61,29.94,10.0,NNW,5.8,-,N/A,,Clear,330,2013-03-31 01:35:00
8:55 PM,52.7,41.9,67,29.95,10.0,North,10.4,-,N/A,,Clear,360,2013-03-31 01:55:00
9:15 PM,51.8,42.6,71,29.95,10.0,North,8.1,-,N/A,,Clear,360,2013-03-31 02:15:00
9:35 PM,50.9,43.0,74,29.95,10.0,North,5.8,-,N/A,,Scattered Clouds,360,2013-03-31 02:35:00
9:55 PM,49.8,42.8,77,29.95,10.0,North,4.6,-,N/A,,Scattered Clouds,350,2013-03-31 02:55:00
10:15 PM,48.2,42.4,80,29.96,10.0,NNW,5.8,-,N/A,,Clear,340,2013-03-31 03:15:00
10:35 PM,47.7,41.9,80,29.96,10.0,NW,6.9,-,N/A,,Scattered Clouds,320,2013-03-31 03:35:00
10:55 PM,47.3,41.9,82,29.97,10.0,NNW,6.9,-,N/A,,Scattered Clouds,330,2013-03-31 03:55:00
11:15 PM,49.1,42.6,78,29.97,10.0,NW,6.9,-,N/A,,Overcast,310,2013-03-31 04:15:00
11:35 PM,48.7,42.4,79,29.97,10.0,NW,6.9,-,N/A,,Mostly Cloudy,310,2013-03-31 04:35:00
11:55 PM,48.4,42.3,79,29.98,10.0,WNW,9.2,-,N/A,,Scattered Clouds,290,2013-03-31 04:55:00